createdAt,value
2018-09-09T00:00:15.632Z,980.66
2018-09-09T00:01:15.623Z,980.65
2018-09-09T00:02:15.623Z,980.61
2018-09-09T00:03:15.619Z,980.64
2018-09-09T00:04:15.647Z,980.64
2018-09-09T00:05:15.615Z,980.62
2018-09-09T00:06:15.627Z,980.60
2018-09-09T00:07:15.612Z,980.61
2018-09-09T00:08:15.613Z,980.60
2018-09-09T00:09:15.640Z,980.60
2018-09-09T00:10:15.624Z,980.58
2018-09-09T00:11:15.613Z,980.59
2018-09-09T00:12:15.608Z,980.65
2018-09-09T00:13:15.601Z,980.72
2018-09-09T00:14:15.633Z,980.74
2018-09-09T00:15:15.637Z,980.76
2018-09-09T00:16:15.602Z,980.75
2018-09-09T00:17:15.616Z,980.72
2018-09-09T00:18:15.597Z,980.77
2018-09-09T00:19:15.598Z,980.71
2018-09-09T00:20:15.644Z,980.70
2018-09-09T00:21:15.594Z,980.66
2018-09-09T00:22:15.594Z,980.70
2018-09-09T00:23:15.590Z,980.71
2018-09-09T00:24:15.607Z,980.75
2018-09-09T00:25:15.615Z,980.77
2018-09-09T00:26:15.583Z,980.81
2018-09-09T00:27:15.588Z,980.88
2018-09-09T00:28:15.587Z,980.89
2018-09-09T00:29:15.579Z,980.86
2018-09-09T00:30:15.612Z,980.84
2018-09-09T00:31:15.582Z,980.87
2018-09-09T00:32:15.582Z,980.93
2018-09-09T00:33:15.580Z,981.00
2018-09-09T00:34:15.608Z,981.01
2018-09-09T00:35:15.576Z,981.00
2018-09-09T00:36:15.601Z,980.96
2018-09-09T00:37:15.579Z,980.91
2018-09-09T00:38:15.572Z,980.87
2018-09-09T00:39:15.565Z,980.86
2018-09-09T00:40:15.597Z,980.84
2018-09-09T00:41:15.566Z,980.83
2018-09-09T00:42:15.557Z,980.84
2018-09-09T00:43:15.565Z,980.82
2018-09-09T00:44:15.565Z,980.81
2018-09-09T00:45:15.590Z,980.82
2018-09-09T00:46:15.562Z,980.80
2018-09-09T00:47:15.567Z,980.81
2018-09-09T00:48:15.583Z,980.82
2018-09-09T00:49:15.553Z,980.83
2018-09-09T00:50:15.587Z,980.85
2018-09-09T00:51:15.558Z,980.79
2018-09-09T00:52:15.557Z,980.78
2018-09-09T00:53:15.554Z,980.76
2018-09-09T00:54:15.559Z,980.71
2018-09-09T00:55:15.603Z,980.62
2018-09-09T00:56:15.550Z,980.62
2018-09-09T00:57:15.551Z,980.59
2018-09-09T00:58:15.571Z,980.66
2018-09-09T00:59:15.543Z,980.63
2018-09-09T01:00:15.567Z,980.64
2018-09-09T01:01:15.539Z,980.61
2018-09-09T01:02:15.540Z,980.60
2018-09-09T01:03:15.536Z,980.66
2018-09-09T01:04:15.536Z,980.65
2018-09-09T01:05:15.564Z,980.69
2018-09-09T01:06:15.544Z,980.75
2018-09-09T01:07:15.536Z,980.72
2018-09-09T01:08:15.549Z,980.75
2018-09-09T01:09:15.534Z,980.74
2018-09-09T01:10:15.558Z,980.72
2018-09-09T01:11:15.526Z,980.67
2018-09-09T01:12:15.526Z,980.62
2018-09-09T01:13:15.526Z,980.65
2018-09-09T01:14:15.525Z,980.57
2018-09-09T01:15:15.569Z,980.61
2018-09-09T01:16:15.518Z,980.62
2018-09-09T01:17:15.521Z,980.61
2018-09-09T01:18:15.513Z,980.65
2018-09-09T01:19:15.509Z,980.65
2018-09-09T01:20:15.538Z,980.63
2018-09-09T01:21:15.509Z,980.64
2018-09-09T01:22:15.503Z,980.63
2018-09-09T01:23:15.506Z,980.64
2018-09-09T01:24:15.502Z,980.61
2018-09-09T01:25:15.535Z,980.64
2018-09-09T01:26:15.503Z,980.67
2018-09-09T01:27:15.498Z,980.62
2018-09-09T01:28:15.499Z,980.64
2018-09-09T01:29:15.507Z,980.64
2018-09-09T01:30:15.516Z,980.62
2018-09-09T01:31:15.492Z,980.66
2018-09-09T01:32:15.491Z,980.68
2018-09-09T01:33:15.485Z,980.70
2018-09-09T01:34:15.490Z,980.70
2018-09-09T01:35:15.521Z,980.71
2018-09-09T01:36:15.505Z,980.70
2018-09-09T01:37:15.484Z,980.71
2018-09-09T01:38:15.481Z,980.70
2018-09-09T01:39:15.498Z,980.71
2018-09-09T01:40:15.515Z,980.73
2018-09-09T01:41:15.478Z,980.74
2018-09-09T01:42:15.473Z,980.76
2018-09-09T01:43:15.478Z,980.75
2018-09-09T01:44:15.469Z,980.77
2018-09-09T01:45:15.502Z,980.82
2018-09-09T01:46:15.658Z,980.87
2018-09-09T01:47:15.468Z,980.88
2018-09-09T01:48:15.469Z,980.96
2018-09-09T01:49:15.475Z,980.98
2018-09-09T01:50:15.491Z,981.02
2018-09-09T01:51:15.472Z,981.04
2018-09-09T01:52:15.455Z,981.06
2018-09-09T01:53:15.475Z,981.04
2018-09-09T01:54:15.459Z,981.08
2018-09-09T01:55:15.483Z,981.10
2018-09-09T01:56:15.456Z,981.11
2018-09-09T01:57:15.451Z,981.09
2018-09-09T01:58:15.451Z,981.07
2018-09-09T01:59:15.447Z,981.12
2018-09-09T02:00:15.497Z,981.17
2018-09-09T02:01:15.448Z,981.19
2018-09-09T02:02:15.443Z,981.18
2018-09-09T02:03:15.471Z,981.17
2018-09-09T02:04:15.444Z,981.15
2018-09-09T02:05:15.468Z,981.17
2018-09-09T02:06:15.445Z,981.15
2018-09-09T02:07:15.437Z,981.15
2018-09-09T02:08:15.436Z,981.17
2018-09-09T02:09:15.438Z,981.16
2018-09-09T02:10:15.477Z,981.12
2018-09-09T02:11:15.459Z,981.17
2018-09-09T02:12:15.433Z,981.17
2018-09-09T02:13:15.445Z,981.19
2018-09-09T02:14:15.429Z,981.18
2018-09-09T02:15:15.426Z,981.16
2018-09-09T02:16:15.455Z,981.14
2018-09-09T02:17:15.437Z,981.15
2018-09-09T02:18:15.418Z,981.13
2018-09-09T02:19:15.425Z,981.15
2018-09-09T02:20:15.419Z,981.12
2018-09-09T02:21:15.445Z,981.11
2018-09-09T02:22:15.420Z,981.08
2018-09-09T02:23:15.414Z,981.08
2018-09-09T02:24:15.414Z,981.06
2018-09-09T02:25:15.440Z,981.07
2018-09-09T02:26:15.531Z,981.08
2018-09-09T02:27:15.419Z,981.04
2018-09-09T02:28:15.408Z,981.06
2018-09-09T02:29:15.407Z,981.03
2018-09-09T02:30:15.439Z,981.02
2018-09-09T02:31:15.429Z,980.98
2018-09-09T02:32:15.410Z,981.00
2018-09-09T02:33:15.405Z,980.98
2018-09-09T02:34:15.406Z,980.93
2018-09-09T02:35:15.404Z,980.94
2018-09-09T02:36:15.433Z,980.92
2018-09-09T02:37:15.396Z,980.93
2018-09-09T02:38:15.401Z,980.89
2018-09-09T02:39:15.406Z,980.90
2018-09-09T02:40:15.393Z,980.90
2018-09-09T02:41:15.428Z,980.91
2018-09-09T02:42:15.399Z,980.89
2018-09-09T02:43:15.390Z,980.87
2018-09-09T02:44:15.395Z,980.88
2018-09-09T02:45:15.390Z,980.87
2018-09-09T02:46:15.421Z,980.81
2018-09-09T02:47:15.383Z,980.78
2018-09-09T02:48:15.383Z,980.75
2018-09-09T02:49:15.386Z,980.69
2018-09-09T02:50:15.380Z,980.67
2018-09-09T02:51:15.415Z,980.66
2018-09-09T02:52:15.380Z,980.61
2018-09-09T02:53:15.379Z,980.57
2018-09-09T02:54:15.381Z,980.55
2018-09-09T02:55:15.378Z,980.56
2018-09-09T02:56:15.410Z,980.52
2018-09-09T02:57:15.369Z,980.50
2018-09-09T02:58:15.382Z,980.50
2018-09-09T02:59:15.367Z,980.47
2018-09-09T03:00:15.364Z,980.46
2018-09-09T03:01:15.407Z,980.45
2018-09-09T03:02:15.365Z,980.41
2018-09-09T03:03:15.364Z,980.44
2018-09-09T03:04:15.362Z,980.48
2018-09-09T03:05:15.392Z,980.44
2018-09-09T03:06:15.513Z,980.47
2018-09-09T03:07:15.357Z,980.48
2018-09-09T03:08:15.360Z,980.47
2018-09-09T03:09:15.354Z,980.46
2018-09-09T03:10:15.382Z,980.49
2018-09-09T03:11:15.358Z,980.46
2018-09-09T03:12:15.353Z,980.48
2018-09-09T03:13:15.349Z,980.46
2018-09-09T03:14:15.349Z,980.45
2018-09-09T03:15:15.385Z,980.44
2018-09-09T03:16:15.342Z,980.43
2018-09-09T03:17:15.345Z,980.46
2018-09-09T03:18:15.341Z,980.46
2018-09-09T03:19:15.372Z,980.45
2018-09-09T03:20:15.340Z,980.43
2018-09-09T03:21:15.350Z,980.42
2018-09-09T03:22:15.340Z,980.39
2018-09-09T03:23:15.331Z,980.39
2018-09-09T03:24:15.364Z,980.39
2018-09-09T03:25:15.330Z,980.35
2018-09-09T03:26:15.331Z,980.40
2018-09-09T03:27:15.331Z,980.39
2018-09-09T03:28:15.328Z,980.41
2018-09-09T03:29:15.370Z,980.45
2018-09-09T03:30:15.328Z,980.43
2018-09-09T03:31:15.325Z,980.45
2018-09-09T03:32:15.343Z,980.44
2018-09-09T03:33:15.320Z,980.43
2018-09-09T03:34:15.350Z,980.44
2018-09-09T03:35:15.315Z,980.43
2018-09-09T03:36:15.316Z,980.46
2018-09-09T03:37:15.321Z,980.49
2018-09-09T03:38:15.313Z,980.50
2018-09-09T03:39:15.359Z,980.58
2018-09-09T03:40:15.383Z,980.56
2018-09-09T03:41:15.309Z,980.62
2018-09-09T03:42:15.317Z,980.58
2018-09-09T03:43:15.307Z,980.59
2018-09-09T03:44:15.333Z,980.59
2018-09-09T03:45:15.306Z,980.60
2018-09-09T03:46:15.300Z,980.60
2018-09-09T03:47:15.308Z,980.58
2018-09-09T03:48:15.303Z,980.57
2018-09-09T03:49:15.346Z,980.60
2018-09-09T03:50:15.304Z,980.60
2018-09-09T03:51:15.295Z,980.62
2018-09-09T03:52:15.318Z,980.66
2018-09-09T03:53:15.291Z,980.60
2018-09-09T03:54:15.319Z,980.66
2018-09-09T03:55:15.288Z,980.68
2018-09-09T03:56:15.316Z,980.72
2018-09-09T03:57:15.287Z,980.73
2018-09-09T03:58:15.289Z,980.73
2018-09-09T03:59:15.314Z,980.74
2018-09-09T04:00:15.284Z,980.75
2018-09-09T04:01:15.276Z,980.79
2018-09-09T04:02:15.313Z,980.75
2018-09-09T04:03:15.275Z,980.78
2018-09-09T04:04:15.277Z,980.79
2018-09-09T04:05:15.309Z,980.76
2018-09-09T04:06:15.289Z,980.76
2018-09-09T04:07:15.273Z,980.77
2018-09-09T04:08:15.270Z,980.80
2018-09-09T04:09:15.297Z,980.80
2018-09-09T04:10:15.328Z,980.80
2018-09-09T04:11:15.266Z,980.80
2018-09-09T04:12:15.293Z,980.82
2018-09-09T04:13:15.265Z,980.81
2018-09-09T04:14:15.261Z,980.81
2018-09-09T04:15:15.288Z,980.83
2018-09-09T04:16:15.257Z,980.89
2018-09-09T04:17:15.259Z,980.89
2018-09-09T04:18:15.260Z,980.87
2018-09-09T04:19:15.255Z,980.91
2018-09-09T04:20:15.283Z,980.91
2018-09-09T04:21:15.251Z,980.95
2018-09-09T04:22:15.257Z,980.90
2018-09-09T04:23:15.248Z,980.90
2018-09-09T04:24:15.244Z,980.93
2018-09-09T04:25:15.282Z,980.92
2018-09-09T04:26:15.247Z,980.92
2018-09-09T04:27:15.241Z,980.92
2018-09-09T04:28:15.245Z,980.92
2018-09-09T04:29:15.242Z,980.93
2018-09-09T04:30:15.273Z,980.94
2018-09-09T04:31:15.237Z,980.95
2018-09-09T04:32:15.253Z,980.95
2018-09-09T04:33:15.235Z,980.99
2018-09-09T04:34:15.233Z,980.98
2018-09-09T04:35:15.257Z,981.02
2018-09-09T04:36:15.229Z,981.04
2018-09-09T04:37:15.228Z,981.03
2018-09-09T04:38:15.232Z,981.03
2018-09-09T04:39:15.229Z,981.00
2018-09-09T04:40:15.251Z,981.02
2018-09-09T04:41:15.228Z,980.98
2018-09-09T04:42:15.224Z,980.99
2018-09-09T04:43:15.218Z,980.97
2018-09-09T04:44:15.231Z,980.94
2018-09-09T04:45:15.244Z,980.96
2018-09-09T04:46:15.216Z,980.97
2018-09-09T04:47:15.214Z,980.93
2018-09-09T04:48:15.241Z,980.91
2018-09-09T04:49:15.211Z,980.89
2018-09-09T04:50:15.211Z,980.86
2018-09-09T04:51:15.236Z,980.88
2018-09-09T04:52:15.231Z,980.85
2018-09-09T04:53:15.203Z,980.83
2018-09-09T04:54:15.197Z,980.79
2018-09-09T04:55:15.199Z,980.81
2018-09-09T04:56:15.232Z,980.81
2018-09-09T04:57:15.197Z,980.82
2018-09-09T04:58:15.205Z,980.83
2018-09-09T04:59:15.192Z,980.83
2018-09-09T05:00:15.197Z,980.79
2018-09-09T05:01:15.238Z,980.83
2018-09-09T05:02:15.191Z,980.83
2018-09-09T05:03:15.189Z,980.83
2018-09-09T05:04:15.184Z,980.85
2018-09-09T05:05:15.192Z,980.92
2018-09-09T05:06:15.227Z,980.95
2018-09-09T05:07:15.181Z,980.95
2018-09-09T05:08:15.223Z,980.96
2018-09-09T05:09:15.177Z,980.99
2018-09-09T05:10:15.178Z,981.00
2018-09-09T05:11:15.183Z,981.02
2018-09-09T05:12:15.203Z,980.98
2018-09-09T05:13:15.173Z,981.01
2018-09-09T05:14:15.173Z,981.01
2018-09-09T05:15:15.183Z,981.00
2018-09-09T05:16:15.199Z,980.99
2018-09-09T05:17:15.166Z,980.96
2018-09-09T05:18:15.214Z,980.97
2018-09-09T05:19:15.167Z,980.96
2018-09-09T05:20:15.164Z,980.91
2018-09-09T05:21:15.163Z,980.87
2018-09-09T05:22:15.197Z,980.88
2018-09-09T05:23:15.159Z,980.95
2018-09-09T05:24:15.159Z,980.96
2018-09-09T05:25:15.168Z,980.98
2018-09-09T05:26:15.156Z,981.00
2018-09-09T05:27:15.180Z,980.99
2018-09-09T05:28:15.155Z,981.02
2018-09-09T05:29:15.156Z,981.00
2018-09-09T05:30:15.150Z,981.00
2018-09-09T05:31:15.175Z,980.95
2018-09-09T05:32:15.166Z,980.95
2018-09-09T05:33:15.148Z,980.95
2018-09-09T05:34:15.148Z,981.00
2018-09-09T05:35:15.147Z,981.03
2018-09-09T05:36:15.168Z,981.08
2018-09-09T05:37:15.143Z,981.06
2018-09-09T05:38:15.144Z,981.08
2018-09-09T05:39:15.153Z,981.13
2018-09-09T05:40:15.139Z,981.15
2018-09-09T05:41:15.168Z,981.15
2018-09-09T05:42:15.204Z,981.16
2018-09-09T05:43:15.161Z,981.19
2018-09-09T05:44:15.130Z,981.22
2018-09-09T05:45:15.131Z,981.15
2018-09-09T05:46:15.150Z,981.18
2018-09-09T05:47:15.158Z,981.19
2018-09-09T05:48:15.134Z,981.20
2018-09-09T05:49:15.144Z,981.21
2018-09-09T05:50:15.131Z,981.20
2018-09-09T05:51:15.157Z,981.21
2018-09-09T05:52:15.125Z,981.19
2018-09-09T05:53:15.126Z,981.23
2018-09-09T05:54:15.128Z,981.24
2018-09-09T05:55:15.129Z,981.22
2018-09-09T05:56:15.167Z,981.15
2018-09-09T05:57:15.123Z,981.16
2018-09-09T05:58:15.125Z,981.17
2018-09-09T05:59:15.123Z,981.23
2018-09-09T06:00:15.126Z,981.18
2018-09-09T06:01:15.149Z,981.20
2018-09-09T06:02:15.127Z,981.20
2018-09-09T06:03:15.125Z,981.19
2018-09-09T06:04:15.120Z,981.18
2018-09-09T06:05:15.121Z,981.27
2018-09-09T06:06:15.152Z,981.29
2018-09-09T06:07:15.121Z,981.30
2018-09-09T06:08:15.121Z,981.32
2018-09-09T06:09:15.122Z,981.33
2018-09-09T06:10:15.119Z,981.32
2018-09-09T06:11:15.147Z,981.31
2018-09-09T06:12:15.156Z,981.32
2018-09-09T06:13:15.113Z,981.34
2018-09-09T06:14:15.115Z,981.39
2018-09-09T06:15:15.117Z,981.39
2018-09-09T06:16:15.117Z,981.38
2018-09-09T06:17:15.169Z,981.42
2018-09-09T06:18:15.118Z,981.40
2018-09-09T06:19:15.118Z,981.42
2018-09-09T06:20:15.142Z,981.42
2018-09-09T06:21:15.118Z,981.39
2018-09-09T06:22:15.143Z,981.39
2018-09-09T06:23:15.114Z,981.38
2018-09-09T06:24:15.115Z,981.40
2018-09-09T06:25:15.129Z,981.38
2018-09-09T06:26:15.117Z,981.37
2018-09-09T06:27:15.156Z,981.38
2018-09-09T06:28:15.164Z,981.39
2018-09-09T06:29:15.120Z,981.38
2018-09-09T06:30:15.119Z,981.34
2018-09-09T06:31:15.116Z,981.33
2018-09-09T06:32:15.143Z,981.35
2018-09-09T06:33:15.120Z,981.36
2018-09-09T06:34:15.117Z,981.42
2018-09-09T06:35:15.116Z,981.43
2018-09-09T06:36:15.120Z,981.47
2018-09-09T06:37:15.149Z,981.52
2018-09-09T06:38:15.128Z,981.54
2018-09-09T06:39:15.116Z,981.46
2018-09-09T06:40:15.116Z,981.53
2018-09-09T06:41:15.132Z,981.51
2018-09-09T06:42:15.144Z,981.53
2018-09-09T06:43:15.121Z,981.53
2018-09-09T06:44:15.122Z,981.60
2018-09-09T06:45:15.123Z,981.61
2018-09-09T06:46:15.121Z,981.67
2018-09-09T06:47:15.152Z,981.73
2018-09-09T06:48:15.122Z,981.74
2018-09-09T06:49:15.126Z,981.72
2018-09-09T06:50:15.125Z,981.76
2018-09-09T06:51:15.150Z,981.77
2018-09-09T06:52:15.154Z,981.76
2018-09-09T06:53:15.130Z,981.62
2018-09-09T06:54:15.127Z,981.66
2018-09-09T06:55:15.154Z,981.63
2018-09-09T06:56:15.135Z,981.64
2018-09-09T06:57:15.168Z,981.60
2018-09-09T06:58:15.146Z,981.61
2018-09-09T06:59:15.137Z,981.61
2018-09-09T07:00:15.143Z,981.60
2018-09-09T07:01:15.144Z,981.63
2018-09-09T07:02:15.182Z,981.62
2018-09-09T07:03:15.148Z,981.60
2018-09-09T07:04:15.149Z,981.59
2018-09-09T07:05:15.168Z,981.62
2018-09-09T07:06:15.157Z,981.63
2018-09-09T07:07:15.181Z,981.64
2018-09-09T07:08:15.156Z,981.73
2018-09-09T07:09:15.157Z,981.76
2018-09-09T07:10:15.157Z,981.75
2018-09-09T07:11:15.249Z,981.74
2018-09-09T07:12:15.189Z,981.66
2018-09-09T07:13:15.161Z,981.68
2018-09-09T07:14:15.166Z,981.66
2018-09-09T07:15:15.166Z,981.60
2018-09-09T07:16:15.212Z,981.60
2018-09-09T07:17:15.174Z,981.61
2018-09-09T07:18:15.175Z,981.57
2018-09-09T07:19:15.228Z,981.58
2018-09-09T07:20:15.174Z,981.61
2018-09-09T07:21:15.179Z,981.58
2018-09-09T07:22:15.210Z,981.60
2018-09-09T07:23:15.182Z,981.62
2018-09-09T07:24:15.185Z,981.60
2018-09-09T07:25:15.191Z,981.57
2018-09-09T07:26:15.188Z,981.58
2018-09-09T07:27:15.213Z,981.61
2018-09-09T07:28:15.191Z,981.63
2018-09-09T07:29:15.191Z,981.56
2018-09-09T07:30:15.196Z,981.61
2018-09-09T07:31:15.268Z,981.66
2018-09-09T07:32:15.219Z,981.65
2018-09-09T07:33:15.204Z,981.71
2018-09-09T07:34:15.223Z,981.69
2018-09-09T07:35:15.219Z,981.70
2018-09-09T07:36:15.252Z,981.67
2018-09-09T07:37:15.224Z,981.71
2018-09-09T07:38:15.240Z,981.76
2018-09-09T07:39:15.214Z,981.78
2018-09-09T07:40:15.217Z,981.77
2018-09-09T07:41:15.222Z,981.75
2018-09-09T07:42:15.249Z,981.76
2018-09-09T07:43:15.897Z,981.78
2018-09-09T07:44:15.230Z,981.77
2018-09-09T07:45:15.235Z,981.83
2018-09-09T07:46:15.257Z,981.85
2018-09-09T07:47:15.306Z,981.85
2018-09-09T07:48:15.243Z,981.90
2018-09-09T07:49:15.243Z,981.84
2018-09-09T07:50:15.267Z,981.94
2018-09-09T07:51:15.262Z,982.01
2018-09-09T07:52:15.279Z,982.00
2018-09-09T07:53:15.256Z,981.99
2018-09-09T07:54:15.260Z,981.89
2018-09-09T07:55:15.291Z,981.85
2018-09-09T07:56:15.269Z,981.87
2018-09-09T07:57:15.280Z,981.87
2018-09-09T07:58:15.303Z,981.89
2018-09-09T07:59:15.283Z,981.93
2018-09-09T08:00:15.309Z,981.95
2018-09-09T08:01:15.290Z,981.93
2018-09-09T08:02:15.297Z,982.08
2018-09-09T08:03:15.327Z,982.15
2018-09-09T08:04:15.307Z,982.14
2018-09-09T08:05:15.316Z,982.15
2018-09-09T08:06:15.329Z,982.21
2018-09-09T08:07:15.321Z,982.19
2018-09-09T08:08:15.369Z,982.28
2018-09-09T08:09:15.981Z,982.24
2018-09-09T08:10:15.377Z,982.20
2018-09-09T08:11:15.349Z,982.24
2018-09-09T08:12:15.396Z,982.06
2018-09-09T08:13:15.362Z,982.05
2018-09-09T08:14:15.402Z,982.06
2018-09-09T08:15:15.390Z,982.00
2018-09-09T08:16:15.391Z,982.00
2018-09-09T08:17:15.913Z,982.07
2018-09-09T08:18:15.446Z,982.13
2018-09-09T08:19:15.438Z,982.27
2018-09-09T08:20:15.421Z,982.17
2018-09-09T08:21:15.432Z,982.13
2018-09-09T08:22:15.456Z,982.24
2018-09-09T08:23:15.471Z,982.24
2018-09-09T08:24:15.484Z,982.12
2018-09-09T08:25:15.463Z,982.12
2018-09-09T08:26:16.411Z,982.12
2018-09-09T08:27:15.488Z,982.08
2018-09-09T08:28:15.521Z,982.07
2018-09-09T08:29:15.500Z,982.07
2018-09-09T08:30:15.539Z,982.03
2018-09-09T08:31:15.519Z,982.02
2018-09-09T08:32:15.532Z,982.05
2018-09-09T08:33:15.538Z,982.12
2018-09-09T08:34:15.573Z,982.12
2018-09-09T08:35:15.557Z,982.12
2018-09-09T08:36:15.567Z,982.13
2018-09-09T08:37:15.592Z,982.19
2018-09-09T08:38:18.022Z,982.13
2018-09-09T08:39:15.627Z,982.16
2018-09-09T08:40:15.609Z,982.15
2018-09-09T08:41:15.611Z,982.17
2018-09-09T08:42:15.627Z,982.13
2018-09-09T08:43:15.630Z,982.09
2018-09-09T08:44:15.670Z,982.09
2018-09-09T08:45:15.651Z,982.11
2018-09-09T08:46:15.666Z,982.06
2018-09-09T08:47:15.669Z,982.07
2018-09-09T08:48:15.720Z,982.27
2018-09-09T08:49:15.687Z,982.25
2018-09-09T08:50:15.699Z,982.17
2018-09-09T08:51:15.708Z,982.21
2018-09-09T08:52:15.734Z,982.32
2018-09-09T08:53:15.756Z,982.27
2018-09-09T08:54:15.737Z,982.27
2018-09-09T08:55:15.747Z,982.33
2018-09-09T08:56:15.758Z,982.40
2018-09-09T08:57:15.765Z,982.44
2018-09-09T08:58:15.807Z,982.46
2018-09-09T08:59:15.785Z,982.47
2018-09-09T09:00:15.800Z,982.37
2018-09-09T09:01:15.816Z,982.33
2018-09-09T09:02:15.824Z,982.31
2018-09-09T09:03:15.864Z,982.22
2018-09-09T09:04:15.849Z,982.23
2018-09-09T09:05:15.865Z,982.24
2018-09-09T09:06:15.875Z,982.21
2018-09-09T09:07:15.887Z,982.19
2018-09-09T09:08:15.933Z,982.15
2018-09-09T09:09:15.917Z,982.13
2018-09-09T09:10:15.925Z,982.11
2018-09-09T09:11:15.933Z,982.10
2018-09-09T09:12:15.978Z,982.10
2018-09-09T09:13:15.967Z,982.15
2018-09-09T09:14:15.976Z,982.11
2018-09-09T09:15:15.989Z,982.12
2018-09-09T09:16:16.019Z,982.13
2018-09-09T09:17:16.012Z,982.11
2018-09-09T09:18:16.052Z,982.09
2018-09-09T09:19:16.033Z,982.09
2018-09-09T09:20:16.043Z,982.12
2018-09-09T09:21:16.052Z,982.12
2018-09-09T09:22:16.093Z,982.12
2018-09-09T09:23:16.074Z,982.11
2018-09-09T09:24:16.091Z,982.12
2018-09-09T09:25:16.097Z,982.12
2018-09-09T09:26:16.104Z,982.14
2018-09-09T09:27:16.148Z,982.06
2018-09-09T09:28:16.144Z,982.09
2018-09-09T09:29:16.136Z,982.10
2018-09-09T09:30:16.144Z,982.13
2018-09-09T09:31:16.162Z,982.17
2018-09-09T09:32:16.189Z,982.13
2018-09-09T09:33:16.175Z,982.18
2018-09-09T09:34:16.182Z,982.19
2018-09-09T09:35:16.199Z,982.16
2018-09-09T09:36:16.197Z,982.17
2018-09-09T09:37:16.230Z,982.18
2018-09-09T09:38:16.218Z,982.19
2018-09-09T09:39:16.222Z,982.18
2018-09-09T09:40:17.007Z,982.19
2018-09-09T09:41:18.413Z,982.17
2018-09-09T09:42:16.494Z,982.19
2018-09-09T09:43:19.809Z,982.17
2018-09-09T09:44:17.089Z,982.12
2018-09-09T09:45:16.299Z,982.11
2018-09-09T09:46:16.331Z,982.13
2018-09-09T09:47:16.374Z,982.10
2018-09-09T09:48:16.978Z,982.08
2018-09-09T09:49:19.818Z,982.09
2018-09-09T09:50:17.714Z,982.10
2018-09-09T09:51:16.730Z,982.16
2018-09-09T09:52:17.756Z,982.16
2018-09-09T09:53:16.785Z,982.19
2018-09-09T09:54:19.487Z,982.12
2018-09-09T09:55:31.706Z,982.08
2018-09-09T09:56:21.440Z,982.13
2018-09-09T09:57:17.559Z,982.14
2018-09-09T09:58:21.006Z,982.21
2018-09-09T09:59:16.473Z,982.19
2018-09-09T10:00:17.006Z,982.20
2018-09-09T10:01:17.904Z,982.14
2018-09-09T10:02:16.958Z,982.11
2018-09-09T10:03:16.453Z,982.08
2018-09-09T10:04:16.462Z,982.09
2018-09-09T10:05:16.451Z,982.05
2018-09-09T10:06:16.459Z,982.09
2018-09-09T10:07:16.462Z,982.12
2018-09-09T10:08:16.496Z,982.16
2018-09-09T10:09:16.474Z,982.15
2018-09-09T10:10:16.484Z,982.18
2018-09-09T10:11:16.488Z,982.19
2018-09-09T10:12:16.524Z,982.17
2018-09-09T10:13:16.509Z,982.21
2018-09-09T10:14:16.515Z,982.21
2018-09-09T10:15:16.558Z,982.24
2018-09-09T10:16:16.538Z,982.28
2018-09-09T10:17:16.574Z,982.28
2018-09-09T10:18:16.563Z,982.26
2018-09-09T10:19:16.557Z,982.23
2018-09-09T10:20:16.566Z,982.20
2018-09-09T10:21:16.581Z,982.23
2018-09-09T10:22:16.615Z,982.25
2018-09-09T10:23:16.601Z,982.24
2018-09-09T10:24:16.606Z,982.24
2018-09-09T10:25:16.634Z,982.26
2018-09-09T10:26:16.622Z,982.23
2018-09-09T10:27:16.658Z,982.21
2018-09-09T10:28:16.667Z,982.29
2018-09-09T10:29:16.664Z,982.38
2018-09-09T10:30:16.657Z,982.49
2018-09-09T10:31:16.664Z,982.52
2018-09-09T10:32:16.703Z,982.50
2018-09-09T10:33:16.719Z,982.50
2018-09-09T10:34:16.696Z,982.53
2018-09-09T10:35:16.704Z,982.51
2018-09-09T10:36:16.717Z,982.56
2018-09-09T10:37:16.753Z,982.46
2018-09-09T10:38:16.769Z,982.48
2018-09-09T10:39:16.753Z,982.49
2018-09-09T10:40:16.769Z,982.49
2018-09-09T10:41:16.777Z,982.57
2018-09-09T10:42:16.817Z,982.56
2018-09-09T10:43:16.833Z,982.62
2018-09-09T10:44:16.826Z,982.63
2018-09-09T10:45:16.834Z,982.66
2018-09-09T10:46:16.931Z,982.69
2018-09-09T10:47:16.914Z,982.64
2018-09-09T10:48:16.903Z,982.60
2018-09-09T10:49:16.898Z,982.62
2018-09-09T10:50:16.911Z,982.61
2018-09-09T10:51:16.955Z,982.62
2018-09-09T10:52:16.971Z,982.57
2018-09-09T10:53:17.071Z,982.56
2018-09-09T10:54:16.975Z,982.56
2018-09-09T10:55:16.990Z,982.54
2018-09-09T10:56:17.011Z,982.48
2018-09-09T10:57:17.056Z,982.46
2018-09-09T10:58:17.044Z,982.52
2018-09-09T10:59:17.061Z,982.45
2018-09-09T11:00:17.080Z,982.44
2018-09-09T11:01:17.092Z,982.47
2018-09-09T11:02:17.161Z,982.45
2018-09-09T11:03:17.134Z,982.47
2018-09-09T11:04:17.148Z,982.50
2018-09-09T11:05:17.170Z,982.51
2018-09-09T11:06:17.202Z,982.46
2018-09-09T11:07:17.230Z,982.47
2018-09-09T11:08:17.222Z,982.45
2018-09-09T11:09:17.242Z,982.50
2018-09-09T11:10:17.266Z,982.51
2018-09-09T11:11:17.274Z,982.51
2018-09-09T11:12:17.327Z,982.50
2018-09-09T11:13:17.309Z,982.55
2018-09-09T11:14:17.327Z,982.53
2018-09-09T11:15:17.348Z,982.45
2018-09-09T11:16:17.367Z,982.54
2018-09-09T11:17:17.429Z,982.50
2018-09-09T11:18:17.434Z,982.48
2018-09-09T11:19:17.419Z,982.23
2018-09-09T11:20:17.444Z,982.30
2018-09-09T11:21:17.453Z,982.34
2018-09-09T11:22:17.500Z,982.39
2018-09-09T11:23:17.493Z,982.35
2018-09-09T11:24:17.509Z,982.32
2018-09-09T11:25:17.532Z,982.45
2018-09-09T11:26:17.545Z,982.37
2018-09-09T11:27:17.586Z,982.37
2018-09-09T11:28:17.578Z,982.34
2018-09-09T11:29:17.594Z,982.32
2018-09-09T11:30:17.611Z,982.31
2018-09-09T11:31:17.631Z,982.28
2018-09-09T11:32:17.678Z,982.27
2018-09-09T11:33:17.660Z,982.24
2018-09-09T11:34:17.679Z,982.29
2018-09-09T11:35:17.696Z,982.39
2018-09-09T11:36:17.768Z,982.24
2018-09-09T11:37:17.763Z,982.35
2018-09-09T11:38:17.743Z,982.30
2018-09-09T11:39:17.762Z,982.32
2018-09-09T11:40:17.799Z,982.37
2018-09-09T11:41:17.788Z,982.33
2018-09-09T11:42:17.836Z,982.31
2018-09-09T11:43:17.825Z,982.16
2018-09-09T11:44:17.845Z,982.11
2018-09-09T11:45:17.864Z,982.20
2018-09-09T11:46:17.874Z,982.12
2018-09-09T11:47:17.929Z,982.19
2018-09-09T11:48:17.908Z,982.30
2018-09-09T11:49:17.925Z,982.32
2018-09-09T11:50:17.939Z,982.32
2018-09-09T11:51:17.954Z,982.43
2018-09-09T11:52:17.992Z,982.37
2018-09-09T11:53:18.054Z,982.45
2018-09-09T11:54:18.002Z,982.32
2018-09-09T11:55:18.013Z,982.30
2018-09-09T11:56:18.031Z,982.32
2018-09-09T11:57:18.080Z,982.23
2018-09-09T11:58:18.064Z,982.22
2018-09-09T11:59:18.090Z,982.22
2018-09-09T12:00:18.103Z,982.21
2018-09-09T12:01:18.112Z,982.21
2018-09-09T12:02:18.181Z,982.19
2018-09-09T12:03:18.146Z,982.18
2018-09-09T12:04:18.157Z,982.15
2018-09-09T12:05:18.176Z,982.18
2018-09-09T12:06:18.204Z,982.17
2018-09-09T12:07:18.228Z,982.19
2018-09-09T12:08:18.245Z,982.18
2018-09-09T12:09:18.226Z,982.16
2018-09-09T12:10:18.254Z,982.14
2018-09-09T12:11:18.254Z,982.13
2018-09-09T12:12:18.274Z,982.07
2018-09-09T12:13:18.313Z,982.09
2018-09-09T12:14:18.289Z,982.10
2018-09-09T12:15:18.306Z,982.07
2018-09-09T12:16:18.318Z,982.09
2018-09-09T12:17:18.339Z,982.07
2018-09-09T12:18:18.371Z,982.07
2018-09-09T12:19:18.356Z,982.04
2018-09-09T12:20:18.365Z,982.07
2018-09-09T12:21:18.382Z,982.09
2018-09-09T12:22:18.398Z,982.07
2018-09-09T12:23:18.434Z,982.09
2018-09-09T12:24:18.417Z,982.04
2018-09-09T12:25:18.424Z,982.02
2018-09-09T12:26:18.456Z,982.07
2018-09-09T12:27:18.449Z,982.05
2018-09-09T12:28:18.477Z,982.09